Flight Track Log - Related Links

Times and Time Zones

All times are in EDT time to prevent confusion due to time zone crossing. See the CHQ5098 flight status page for this flight to view local times or setup timezone preferences in your user account.

Time Position Orientation Groundspeed Altitude Reporting Facility
EDT Latitude Longitude Course Direction KTS MPH feet Rate Location/Type
Sun 10:00:57 PM 41.9833 -87.8500 352° North 179 206 2,300  Level Chicago TRACON
Sun 10:02:03 PM 42.0333 -87.8000 37° Northeast 237 273 4,700 884 Climbing Chicago TRACON
Sun 10:03:00 PM 42.1918 -87.9709 340° North  Level FlightAware Approximate
Sun 10:04:00 PM 42.2668 -87.9959 350° North  Level FlightAware Approximate
Sun 10:04:07 PM 42.1722 -87.7867 North 255 293 5,100  Level Chicago Center
Sun 10:05:00 PM 42.3431 -88.0149 350° North  Level FlightAware Approximate
Sun 10:05:08 PM 42.2442 -87.7903 358° North 259 298 7,600  Level Chicago Center
Sun 10:06:00 PM 42.4205 -88.0508 352° North  Level FlightAware Approximate
Sun 10:06:09 PM 42.3200 -87.7936 358° North 270 311 10,400  Level Chicago Center
Sun 10:07:11 PM 42.4064 -87.7986 358° North 295 339 11,500 1,317 Climbing Chicago Center
Sun 10:08:12 PM 42.5014 -87.8061 357° North 337 388 13,100 1,902 Climbing Chicago Center
Sun 10:09:14 PM 42.5953 -87.8181 355° North 339 390 15,400 1,415 Climbing Chicago Center
Sun 10:10:15 PM 42.6903 -87.8358 352° North 342 394 16,000 295 Climbing Chicago Center
Sun 10:11:16 PM 42.7956 -87.8500 354° North 373 429 16,000  Level Chicago Center
Sun 10:12:18 PM 42.9161 -87.8708 353° North 376 433 16,000  Level Chicago Center
Sun 10:13:19 PM 43.0222 -87.8869 354° North 382 440 16,000  Level Chicago Center
Sun 10:14:20 PM 43.1261 -87.9042 353° North 378 435 16,000  Level Chicago Center
Sun 10:15:22 PM 43.2325 -87.9208 353° North 383 441 16,000 -439 Level Chicago Center
Sun 10:16:23 PM 43.3367 -87.9386 353° North 380 437 15,100 -885 Descending Chicago Center
Sun 10:17:24 PM 43.4350 -87.9547 353° North 363 418 14,200 -689 Descending Chicago Center
Sun 10:18:25 PM 43.5361 -87.9717 353° North 366 421 13,700 -780 Descending Chicago Center
Sun 10:19:27 PM 43.6542 -87.9914 353° North 367 422 12,600 -1,084 Descending Chicago Center
Sun 10:19:48 PM 43.6861 -87.9969 353° North 363 418 12,200 -1,024 Descending Minneapolis Center
Sun 10:20:49 PM 43.7819 -88.0114 354° North 350 403 11,200 -1,033 Descending Minneapolis Center
Sun 10:21:50 PM 43.8750 -88.0272 353° North 340 391 10,100 -590 Descending Minneapolis Center
Sun 10:22:51 PM 43.9667 -88.0431 353° North 333 383 10,000 -49 Descending Minneapolis Center
Sun 10:23:52 PM 44.0533 -88.0589 353° North 316 364 10,000 -780 Level Minneapolis Center
Sun 10:24:54 PM 44.1228 -88.0683 354° North 259 298 8,400 -1,610 Descending Minneapolis Center
Sun 10:25:55 PM 44.1917 -88.0911 347° North 253 291 6,700 -1,574 Descending Minneapolis Center
Sun 10:26:56 PM 44.2575 -88.1333 335° Northwest 258 297 5,200 -1,522 Descending Minneapolis Center
Sun 10:28:09 PM 44.3344 -88.1794 337° Northwest 259 298 3,300 -1,562 Descending Minneapolis Center

Login

Don't have an account? Register now (free) for customized features, flight alerts, and more!